createdAt,value
2023-04-19T00:01:36.940Z,15.15
2023-04-19T00:04:03.639Z,14.93
2023-04-19T00:06:30.584Z,12.50
2023-04-19T00:08:57.599Z,14.18
2023-04-19T00:11:24.589Z,14.63
2023-04-19T00:13:51.011Z,13.25
2023-04-19T00:16:17.433Z,12.50
2023-04-19T00:18:43.965Z,13.57
2023-04-19T00:21:10.392Z,15.02
2023-04-19T00:23:36.672Z,12.73
2023-04-19T00:26:04.113Z,13.95
2023-04-19T00:28:31.004Z,12.77
2023-04-19T00:30:57.476Z,13.75
2023-04-19T00:33:24.044Z,11.98
2023-04-19T00:35:50.350Z,29.20
2023-04-19T00:38:16.703Z,17.17
2023-04-19T00:40:43.143Z,16.20
2023-04-19T00:43:09.449Z,10.27
2023-04-19T00:45:36.923Z,13.63
2023-04-19T00:48:03.389Z,13.27
2023-04-19T00:50:30.506Z,16.65
2023-04-19T00:52:57.645Z,20.48
2023-04-19T00:55:25.158Z,15.55
2023-04-19T00:57:52.244Z,23.70
2023-04-19T01:00:18.853Z,14.02
2023-04-19T01:02:45.472Z,14.18
2023-04-19T01:05:11.991Z,13.48
2023-04-19T01:07:38.531Z,12.32
2023-04-19T01:10:05.017Z,14.57
2023-04-19T01:12:31.385Z,13.70
2023-04-19T01:14:57.817Z,12.82
2023-04-19T01:17:25.691Z,14.65
2023-04-19T01:19:58.652Z,14.00
2023-04-19T01:22:25.038Z,22.60
2023-04-19T01:24:51.658Z,18.60
2023-04-19T01:27:19.923Z,15.65
2023-04-19T01:29:46.262Z,15.13
2023-04-19T01:32:15.328Z,16.73
2023-04-19T01:34:42.868Z,18.65
2023-04-19T01:37:09.268Z,19.80
2023-04-19T01:39:35.824Z,16.02
2023-04-19T01:42:02.953Z,15.48
2023-04-19T01:44:29.434Z,13.23
2023-04-19T01:46:56.171Z,16.40
2023-04-19T01:49:22.534Z,15.85
2023-04-19T01:51:48.825Z,19.73
2023-04-19T01:54:15.319Z,20.20
2023-04-19T01:56:41.747Z,18.75
2023-04-19T01:59:08.317Z,20.67
2023-04-19T02:01:34.648Z,21.45
2023-04-19T02:04:02.546Z,17.35
2023-04-19T02:06:29.100Z,16.05
2023-04-19T02:08:55.617Z,16.00
2023-04-19T02:11:22.352Z,23.50
2023-04-19T02:13:48.727Z,18.02
2023-04-19T02:16:15.156Z,18.45
2023-04-19T02:18:41.589Z,28.13
2023-04-19T02:21:08.753Z,19.48
2023-04-19T02:23:35.508Z,13.88
2023-04-19T02:26:03.251Z,18.27
2023-04-19T02:28:32.985Z,15.30
2023-04-19T02:30:59.326Z,12.90
2023-04-19T02:33:27.037Z,13.98
2023-04-19T02:35:53.372Z,18.05
2023-04-19T02:38:19.741Z,18.13
2023-04-19T02:40:46.056Z,16.67
2023-04-19T02:43:12.443Z,21.08
2023-04-19T02:45:38.822Z,15.60
2023-04-19T02:48:05.752Z,10.75
2023-04-19T02:50:32.444Z,25.75
2023-04-19T02:52:58.812Z,17.05
2023-04-19T02:55:25.101Z,16.80
2023-04-19T02:57:51.958Z,19.85
2023-04-19T03:00:18.381Z,16.98
2023-04-19T03:02:44.771Z,19.73
2023-04-19T03:05:11.188Z,16.63
2023-04-19T03:07:37.521Z,16.30
2023-04-19T03:10:04.068Z,17.42
2023-04-19T03:12:30.361Z,15.32
2023-04-19T03:14:56.681Z,15.88
2023-04-19T03:17:23.057Z,14.90
2023-04-19T03:19:49.349Z,14.77
2023-04-19T03:22:15.691Z,16.17
2023-04-19T03:24:42.052Z,11.88
2023-04-19T03:27:08.346Z,17.20
2023-04-19T03:29:34.648Z,13.95
2023-04-19T03:32:01.131Z,13.85
2023-04-19T03:34:27.448Z,15.85
2023-04-19T03:36:53.792Z,12.52
2023-04-19T03:39:20.125Z,15.80
2023-04-19T03:41:46.417Z,18.20
2023-04-19T03:44:12.796Z,13.00
2023-04-19T03:46:39.216Z,13.05
2023-04-19T03:49:06.090Z,11.68
2023-04-19T03:51:32.382Z,15.20
2023-04-19T03:53:58.690Z,15.32
2023-04-19T03:56:25.004Z,9.98
2023-04-19T03:58:51.626Z,13.52
2023-04-19T04:01:21.463Z,14.45
2023-04-19T04:03:48.070Z,14.35
2023-04-19T04:06:14.749Z,14.85
2023-04-19T04:08:41.057Z,14.95
2023-04-19T04:11:07.403Z,13.90
2023-04-19T04:13:33.698Z,17.00
2023-04-19T04:16:00.319Z,14.57
2023-04-19T04:18:28.544Z,12.35
2023-04-19T04:20:55.674Z,11.23
2023-04-19T04:23:22.092Z,15.60
2023-04-19T04:25:55.754Z,13.32
2023-04-19T04:28:22.932Z,13.75
2023-04-19T04:30:49.366Z,13.98
2023-04-19T04:33:16.058Z,20.20
2023-04-19T04:35:43.388Z,12.90
2023-04-19T04:38:21.375Z,13.48
2023-04-19T04:40:53.459Z,13.00
2023-04-19T04:43:21.265Z,13.05
2023-04-19T04:45:47.697Z,12.07
2023-04-19T04:48:14.082Z,16.67
2023-04-19T04:50:40.581Z,18.75
2023-04-19T04:53:06.936Z,19.58
2023-04-19T04:55:34.002Z,16.35
2023-04-19T04:58:00.556Z,19.90
2023-04-19T05:00:26.858Z,15.18
2023-04-19T05:02:53.308Z,16.25
2023-04-19T05:05:19.750Z,19.58
2023-04-19T05:07:46.792Z,17.15
2023-04-19T05:10:13.158Z,14.35
2023-04-19T05:12:39.576Z,14.10
2023-04-19T05:15:06.444Z,18.48
2023-04-19T05:17:32.878Z,20.25
2023-04-19T05:19:59.225Z,16.23
2023-04-19T05:22:25.792Z,15.35
2023-04-19T05:24:52.195Z,15.23
2023-04-19T05:27:18.532Z,18.65
2023-04-19T05:29:44.857Z,13.98
2023-04-19T05:32:11.544Z,12.45
2023-04-19T05:34:37.898Z,13.45
2023-04-19T05:37:05.532Z,17.05
2023-04-19T05:39:31.827Z,15.18
2023-04-19T05:41:58.132Z,10.65
2023-04-19T05:44:24.410Z,13.30
2023-04-19T05:46:50.705Z,10.93
2023-04-19T05:49:17.005Z,14.98
2023-04-19T05:51:43.355Z,16.95
2023-04-19T05:54:12.536Z,14.40
2023-04-19T05:56:39.173Z,12.48
2023-04-19T05:59:06.526Z,17.00
2023-04-19T06:01:32.917Z,12.20
2023-04-19T06:03:59.274Z,11.32
2023-04-19T06:06:25.801Z,11.18
2023-04-19T06:08:54.648Z,13.55
2023-04-19T06:11:28.956Z,11.25
2023-04-19T06:13:57.996Z,14.02
2023-04-19T06:16:24.374Z,5.65
2023-04-19T06:18:50.833Z,12.85
2023-04-19T06:21:17.159Z,33.20
2023-04-19T06:23:43.444Z,43.03
2023-04-19T06:26:09.739Z,66.75
2023-04-19T06:28:36.052Z,54.90
2023-04-19T06:31:02.589Z,26.20
2023-04-19T06:33:28.972Z,40.78
2023-04-19T06:35:55.406Z,40.15
2023-04-19T06:38:21.774Z,23.83
2023-04-19T06:40:48.129Z,5.32
2023-04-19T06:43:14.559Z,4.90
2023-04-19T06:45:40.888Z,5.45
2023-04-19T06:48:07.286Z,4.70
2023-04-19T06:50:33.758Z,5.40
2023-04-19T06:53:00.140Z,8.15
2023-04-19T06:55:26.796Z,5.35
2023-04-19T06:57:53.110Z,5.63
2023-04-19T07:00:19.551Z,8.48
2023-04-19T07:02:45.999Z,6.32
2023-04-19T07:05:13.328Z,8.15
2023-04-19T07:07:41.230Z,5.95
2023-04-19T07:10:08.695Z,6.35
2023-04-19T07:12:35.398Z,5.15
2023-04-19T07:15:01.722Z,7.60
2023-04-19T07:17:28.161Z,6.40
2023-04-19T07:19:54.462Z,6.47
2023-04-19T07:22:22.225Z,5.18
2023-04-19T07:24:48.620Z,6.35
2023-04-19T07:27:16.452Z,5.82
2023-04-19T07:29:42.731Z,6.25
2023-04-19T07:32:09.071Z,6.07
2023-04-19T07:34:36.739Z,5.47
2023-04-19T07:37:03.038Z,11.23
2023-04-19T07:39:31.008Z,5.03
2023-04-19T07:41:58.104Z,5.28
2023-04-19T07:44:24.429Z,5.10
2023-04-19T07:46:51.100Z,5.78
2023-04-19T07:49:17.452Z,5.20
2023-04-19T07:51:43.754Z,5.15
2023-04-19T07:54:10.468Z,5.13
2023-04-19T07:56:36.916Z,4.95
2023-04-19T07:59:08.360Z,5.15
2023-04-19T08:01:35.703Z,5.10
2023-04-19T08:04:02.417Z,7.70
2023-04-19T08:06:30.516Z,5.97
2023-04-19T08:08:56.896Z,5.22
2023-04-19T08:11:25.043Z,4.72
2023-04-19T08:14:04.783Z,5.82
2023-04-19T08:19:04.973Z,6.72
2023-04-19T08:21:40.642Z,4.72
2023-04-19T08:24:08.254Z,8.50
2023-04-19T08:26:34.597Z,5.05
2023-04-19T08:29:00.984Z,5.20
2023-04-19T08:31:27.337Z,4.38
2023-04-19T08:33:53.693Z,5.10
2023-04-19T08:36:25.545Z,7.43
2023-04-19T08:39:05.705Z,11.02
2023-04-19T08:41:34.936Z,8.65
2023-04-19T08:44:02.024Z,4.43
2023-04-19T08:46:28.710Z,14.23
2023-04-19T08:48:55.400Z,3.75
2023-04-19T08:51:22.006Z,2.30
2023-04-19T08:53:49.645Z,2.75
2023-04-19T08:56:27.876Z,2.40
2023-04-19T08:59:11.674Z,2.60
2023-04-19T09:04:34.524Z,2.28
2023-04-19T09:06:57.622Z,2.60
2023-04-19T09:09:36.632Z,2.28
2023-04-19T09:12:16.182Z,2.63
2023-04-19T09:14:59.951Z,1.85
2023-04-19T09:17:28.175Z,2.92
2023-04-19T09:19:54.646Z,2.30
2023-04-19T09:22:21.482Z,2.47
2023-04-19T09:27:28.152Z,2.08
2023-04-19T09:29:55.505Z,2.30
2023-04-19T09:32:22.477Z,2.30
2023-04-19T09:34:53.279Z,2.13
2023-04-19T09:37:32.924Z,1.90
2023-04-19T09:43:06.916Z,2.65
2023-04-19T09:45:47.294Z,3.22
2023-04-19T09:48:13.671Z,2.83
2023-04-19T09:50:57.474Z,2.20
2023-04-19T09:53:27.791Z,2.58
2023-04-19T09:56:01.514Z,2.17
2023-04-19T09:58:37.670Z,1.98
2023-04-19T10:01:14.947Z,2.35
2023-04-19T10:03:44.543Z,2.67
2023-04-19T10:06:20.645Z,2.20
2023-04-19T10:09:00.584Z,1.73
2023-04-19T10:11:31.462Z,2.28
2023-04-19T10:14:00.017Z,2.30
2023-04-19T10:16:26.668Z,1.90
2023-04-19T10:18:53.388Z,2.20
2023-04-19T10:21:20.477Z,3.83
2023-04-19T10:23:47.483Z,2.45
2023-04-19T10:26:13.826Z,1.85
2023-04-19T10:28:41.408Z,2.20
2023-04-19T10:31:11.321Z,2.08
2023-04-19T10:33:37.898Z,1.88
2023-04-19T10:36:04.694Z,2.45
2023-04-19T10:38:37.266Z,3.08
2023-04-19T10:41:04.411Z,1.38
2023-04-19T10:43:30.727Z,1.88
2023-04-19T10:46:17.453Z,1.50
2023-04-19T10:48:53.716Z,1.83
2023-04-19T10:51:27.938Z,1.75
2023-04-19T10:53:54.362Z,1.60
2023-04-19T10:56:32.655Z,1.70
2023-04-19T10:59:02.253Z,1.77
2023-04-19T11:01:35.358Z,1.52
2023-04-19T11:04:01.852Z,2.70
2023-04-19T11:06:28.359Z,1.80
2023-04-19T11:08:55.001Z,2.08
2023-04-19T11:11:27.457Z,1.98
2023-04-19T11:13:55.536Z,1.40
2023-04-19T11:16:28.479Z,2.00
2023-04-19T11:19:04.609Z,1.88
2023-04-19T11:21:32.193Z,1.60
2023-04-19T11:24:08.266Z,1.42
2023-04-19T11:26:34.816Z,1.98
2023-04-19T11:29:01.440Z,2.35
2023-04-19T11:31:27.980Z,2.30
2023-04-19T11:33:54.557Z,1.20
2023-04-19T11:36:21.039Z,2.35
2023-04-19T11:38:48.248Z,1.48
2023-04-19T11:41:14.614Z,1.33
2023-04-19T11:43:41.407Z,2.17
2023-04-19T11:46:11.771Z,2.17
2023-04-19T11:48:38.775Z,2.22
2023-04-19T11:51:05.649Z,1.83
2023-04-19T11:53:32.684Z,2.30
2023-04-19T11:56:06.205Z,1.83
2023-04-19T11:58:36.201Z,2.05
2023-04-19T12:01:13.096Z,1.60
2023-04-19T12:03:45.630Z,1.80
2023-04-19T12:06:13.507Z,2.35
2023-04-19T12:08:42.844Z,2.42
2023-04-19T12:11:09.191Z,2.10
2023-04-19T12:13:36.473Z,3.13
2023-04-19T12:16:03.404Z,1.65
2023-04-19T12:18:43.801Z,1.77
2023-04-19T12:21:10.926Z,2.00
2023-04-19T12:23:37.238Z,1.77
2023-04-19T12:26:06.638Z,2.38
2023-04-19T12:28:32.964Z,1.55
2023-04-19T12:30:59.897Z,1.75
2023-04-19T12:33:26.386Z,2.13
2023-04-19T12:35:52.679Z,1.83
2023-04-19T12:38:18.964Z,1.88
2023-04-19T12:40:45.488Z,1.77
2023-04-19T12:43:11.819Z,1.98
2023-04-19T12:45:38.229Z,2.78
2023-04-19T12:48:04.704Z,1.92
2023-04-19T12:50:31.324Z,2.05
2023-04-19T12:52:57.672Z,2.42
2023-04-19T12:55:24.074Z,1.90
2023-04-19T12:57:50.472Z,1.92
2023-04-19T13:00:17.356Z,2.10
2023-04-19T13:02:43.863Z,1.30
2023-04-19T13:05:10.331Z,2.85
2023-04-19T13:07:36.741Z,1.77
2023-04-19T13:10:03.645Z,2.22
2023-04-19T13:12:29.945Z,2.08
2023-04-19T13:14:56.799Z,2.38
2023-04-19T13:17:23.235Z,1.60
2023-04-19T13:19:49.648Z,1.95
2023-04-19T13:22:15.962Z,2.00
2023-04-19T13:24:42.300Z,2.15
2023-04-19T13:27:09.249Z,2.08
2023-04-19T13:29:35.724Z,1.70
2023-04-19T13:32:02.074Z,3.58
2023-04-19T13:34:28.479Z,3.15
2023-04-19T13:36:54.936Z,3.70
2023-04-19T13:39:21.614Z,9.40
2023-04-19T13:41:47.996Z,4.25
2023-04-19T13:44:14.522Z,2.85
2023-04-19T13:46:41.118Z,2.50
2023-04-19T13:49:07.544Z,2.22
2023-04-19T13:51:42.766Z,2.55
2023-04-19T13:54:17.855Z,2.17
2023-04-19T13:56:44.749Z,3.03
2023-04-19T13:59:11.152Z,3.00
2023-04-19T14:01:37.517Z,2.30
2023-04-19T14:04:04.097Z,2.72
2023-04-19T14:06:31.123Z,2.30
2023-04-19T14:08:57.474Z,2.38
2023-04-19T14:11:25.061Z,3.33
2023-04-19T14:13:52.332Z,2.50
2023-04-19T14:16:18.723Z,2.28
2023-04-19T14:18:45.062Z,2.40
2023-04-19T14:21:11.742Z,2.60
2023-04-19T14:23:38.065Z,2.22
2023-04-19T14:26:04.458Z,4.20
2023-04-19T14:28:30.777Z,2.58
2023-04-19T14:30:57.107Z,3.60
2023-04-19T14:33:23.733Z,2.53
2023-04-19T14:35:50.070Z,1.90
2023-04-19T14:38:16.485Z,3.55
2023-04-19T14:40:42.898Z,3.15
2023-04-19T14:43:11.269Z,2.35
2023-04-19T14:45:37.652Z,3.28
2023-04-19T14:48:04.063Z,3.25
2023-04-19T14:50:30.435Z,2.83
2023-04-19T14:52:56.761Z,2.67
2023-04-19T14:55:24.920Z,2.42
2023-04-19T14:57:51.273Z,4.05
2023-04-19T15:00:17.789Z,2.42
2023-04-19T15:02:44.263Z,3.75
2023-04-19T15:05:11.139Z,3.63
2023-04-19T15:07:38.097Z,2.53
2023-04-19T15:10:04.709Z,3.13
2023-04-19T15:12:31.237Z,3.30
2023-04-19T15:14:57.561Z,2.92
2023-04-19T15:17:23.996Z,2.90
2023-04-19T15:19:50.385Z,2.88
2023-04-19T15:22:16.736Z,2.85
2023-04-19T15:24:43.101Z,3.08
2023-04-19T15:27:09.418Z,3.30
2023-04-19T15:29:35.852Z,2.90
2023-04-19T15:32:02.868Z,3.08
2023-04-19T15:34:29.185Z,2.92
2023-04-19T15:36:55.525Z,3.20
2023-04-19T15:39:21.903Z,3.58
2023-04-19T15:41:48.265Z,2.90
2023-04-19T15:44:14.790Z,3.78
2023-04-19T15:46:41.438Z,3.53
2023-04-19T15:49:07.845Z,2.55
2023-04-19T15:51:34.226Z,3.17
2023-04-19T15:54:00.865Z,2.90
2023-04-19T15:56:27.211Z,3.08
2023-04-19T15:58:53.601Z,3.08
2023-04-19T16:01:19.952Z,2.70
2023-04-19T16:03:46.543Z,2.80
2023-04-19T16:06:13.702Z,2.25
2023-04-19T16:08:40.092Z,2.53
2023-04-19T16:11:06.443Z,2.58
2023-04-19T16:13:32.794Z,2.53
2023-04-19T16:15:59.984Z,2.30
2023-04-19T16:18:26.393Z,2.60
2023-04-19T16:20:53.606Z,2.97
2023-04-19T16:23:20.060Z,2.88
2023-04-19T16:25:46.792Z,2.22
2023-04-19T16:28:13.103Z,2.75
2023-04-19T16:30:39.487Z,2.28
2023-04-19T16:33:05.932Z,3.08
2023-04-19T16:35:32.282Z,2.72
2023-04-19T16:38:00.452Z,2.75
2023-04-19T16:40:26.850Z,2.92
2023-04-19T16:42:53.195Z,3.63
2023-04-19T16:45:19.526Z,3.72
2023-04-19T16:47:46.530Z,3.05
2023-04-19T16:50:13.647Z,3.53
2023-04-19T16:52:40.412Z,2.67
2023-04-19T16:55:07.356Z,3.17
2023-04-19T16:57:33.656Z,3.55
2023-04-19T17:00:00.184Z,3.00
2023-04-19T17:02:26.814Z,3.35
2023-04-19T17:04:53.286Z,2.70
2023-04-19T17:07:19.731Z,2.28
2023-04-19T17:09:46.216Z,3.05
2023-04-19T17:12:12.586Z,2.75
2023-04-19T17:14:39.026Z,2.53
2023-04-19T17:17:05.452Z,2.08
2023-04-19T17:19:31.855Z,1.95
2023-04-19T17:22:04.797Z,2.55
2023-04-19T17:24:32.156Z,2.75
2023-04-19T17:26:58.664Z,2.22
2023-04-19T17:29:25.115Z,3.08
2023-04-19T17:31:51.522Z,2.88
2023-04-19T17:34:18.508Z,2.65
2023-04-19T17:36:44.916Z,3.05
2023-04-19T17:39:11.334Z,2.63
2023-04-19T17:41:37.797Z,3.78
2023-04-19T17:44:04.174Z,3.25
2023-04-19T17:46:30.648Z,2.90
2023-04-19T17:48:57.015Z,2.97
2023-04-19T17:51:23.472Z,2.83
2023-04-19T17:53:49.887Z,2.95
2023-04-19T17:56:16.342Z,2.63
2023-04-19T17:58:42.722Z,3.53
2023-04-19T18:01:10.322Z,3.30
2023-04-19T18:03:37.268Z,2.85
2023-04-19T18:06:03.878Z,2.58
2023-04-19T18:08:30.194Z,2.70
2023-04-19T18:10:56.483Z,2.67
2023-04-19T18:13:22.774Z,2.70
2023-04-19T18:15:49.102Z,2.55
2023-04-19T18:18:15.660Z,2.20
2023-04-19T18:20:41.957Z,2.72
2023-04-19T18:23:08.468Z,2.40
2023-04-19T18:25:36.810Z,2.63
2023-04-19T18:28:04.371Z,2.60
2023-04-19T18:30:30.679Z,2.33
2023-04-19T18:32:58.732Z,2.25
2023-04-19T18:35:25.084Z,3.13
2023-04-19T18:37:51.388Z,2.20
2023-04-19T18:40:18.909Z,3.10
2023-04-19T18:42:45.616Z,2.50
2023-04-19T18:45:12.110Z,2.58
2023-04-19T18:47:38.472Z,2.75
2023-04-19T18:50:06.584Z,2.47
2023-04-19T18:52:38.889Z,2.63
2023-04-19T18:55:05.794Z,2.45
2023-04-19T18:57:34.637Z,2.78
2023-04-19T19:00:01.837Z,2.70
2023-04-19T19:02:28.407Z,1.98
2023-04-19T19:04:58.632Z,15.82
2023-04-19T19:07:36.134Z,15.98
2023-04-19T19:10:15.994Z,11.38
2023-04-19T19:12:45.385Z,16.02
2023-04-19T19:15:11.737Z,15.18
2023-04-19T19:17:38.286Z,13.60
2023-04-19T19:20:06.634Z,14.25
2023-04-19T19:22:33.342Z,19.25
2023-04-19T19:25:00.342Z,15.50
2023-04-19T19:27:26.717Z,21.38
2023-04-19T19:29:53.026Z,19.77
2023-04-19T19:32:19.499Z,23.42
2023-04-19T19:34:55.586Z,19.40
2023-04-19T19:37:26.027Z,15.98
2023-04-19T19:39:52.381Z,16.20
2023-04-19T19:42:19.306Z,19.48
2023-04-19T19:44:45.888Z,19.98
2023-04-19T19:47:12.677Z,17.00
2023-04-19T19:52:08.374Z,20.30
2023-04-19T19:54:34.825Z,21.73
2023-04-19T19:59:34.542Z,22.33
2023-04-19T20:02:02.279Z,21.75
2023-04-19T20:04:29.100Z,19.92
2023-04-19T20:09:27.726Z,24.90
2023-04-19T20:11:54.241Z,18.48
2023-04-19T20:14:22.088Z,20.63
2023-04-19T20:16:48.581Z,22.40
2023-04-19T20:19:15.002Z,16.52
2023-04-19T20:21:41.561Z,16.38
2023-04-19T20:24:08.051Z,21.35
2023-04-19T20:26:34.455Z,19.80
2023-04-19T20:29:01.197Z,19.38
2023-04-19T20:31:27.776Z,13.35
2023-04-19T20:33:54.204Z,19.08
2023-04-19T20:36:23.501Z,11.25
2023-04-19T20:38:53.167Z,18.23
2023-04-19T20:41:19.745Z,17.63
2023-04-19T20:43:46.049Z,17.52
2023-04-19T20:46:12.447Z,13.88
2023-04-19T20:48:38.840Z,8.48
2023-04-19T20:51:05.229Z,13.32
2023-04-19T20:53:31.604Z,18.00
2023-04-19T20:55:57.990Z,15.15
2023-04-19T20:58:24.311Z,16.25
2023-04-19T21:00:50.752Z,19.05
2023-04-19T21:03:17.247Z,12.20
2023-04-19T21:05:44.537Z,8.43
2023-04-19T21:08:11.061Z,10.27
2023-04-19T21:10:37.411Z,11.60
2023-04-19T21:13:03.772Z,9.95
2023-04-19T21:15:30.192Z,8.50
2023-04-19T21:17:56.506Z,10.23
2023-04-19T21:20:22.890Z,8.10
2023-04-19T21:22:49.308Z,11.43
2023-04-19T21:25:16.309Z,7.45
2023-04-19T21:27:42.747Z,7.13
2023-04-19T21:30:09.769Z,8.75
2023-04-19T21:32:36.214Z,7.55
2023-04-19T21:35:03.385Z,7.32
2023-04-19T21:37:29.766Z,5.72
2023-04-19T21:39:57.494Z,7.05
2023-04-19T21:42:23.790Z,12.60
2023-04-19T21:44:50.166Z,6.80
2023-04-19T21:47:16.466Z,7.20
2023-04-19T21:49:42.774Z,7.70
2023-04-19T21:52:09.159Z,7.18
2023-04-19T21:54:35.603Z,7.95
2023-04-19T21:57:02.122Z,6.70
2023-04-19T21:59:29.371Z,5.60
2023-04-19T22:01:55.801Z,10.73
2023-04-19T22:04:22.284Z,5.63
2023-04-19T22:06:49.389Z,7.50
2023-04-19T22:09:16.012Z,5.95
2023-04-19T22:11:42.830Z,6.25
2023-04-19T22:14:09.235Z,6.72
2023-04-19T22:16:35.683Z,9.25
2023-04-19T22:19:02.348Z,4.70
2023-04-19T22:21:28.840Z,7.53
2023-04-19T22:23:55.215Z,6.25
2023-04-19T22:26:22.304Z,5.45
2023-04-19T22:28:48.667Z,5.63
2023-04-19T22:31:15.000Z,6.22
2023-04-19T22:33:41.282Z,4.90
2023-04-19T22:36:08.030Z,4.45
2023-04-19T22:38:34.329Z,5.18
2023-04-19T22:41:01.025Z,6.10
2023-04-19T22:43:27.474Z,4.20
2023-04-19T22:45:53.828Z,4.85
2023-04-19T22:48:20.175Z,7.32
2023-04-19T22:50:46.553Z,8.15
2023-04-19T22:53:13.049Z,5.55
2023-04-19T22:55:39.820Z,6.35
2023-04-19T22:58:06.541Z,4.05
2023-04-19T23:00:33.007Z,5.80
2023-04-19T23:02:59.463Z,4.10
2023-04-19T23:05:26.951Z,5.03
2023-04-19T23:07:58.739Z,6.60
2023-04-19T23:10:26.040Z,8.18
2023-04-19T23:12:54.214Z,4.65
2023-04-19T23:15:20.918Z,4.90
2023-04-19T23:17:47.340Z,4.20
2023-04-19T23:20:13.792Z,4.45
2023-04-19T23:22:40.209Z,4.65
2023-04-19T23:25:07.275Z,4.70
2023-04-19T23:27:33.862Z,5.32
2023-04-19T23:30:00.597Z,5.30
2023-04-19T23:32:26.952Z,4.05
2023-04-19T23:34:53.347Z,5.30
2023-04-19T23:37:19.666Z,6.32
2023-04-19T23:39:46.036Z,4.15
2023-04-19T23:42:12.331Z,4.32
2023-04-19T23:44:38.975Z,3.85
2023-04-19T23:47:05.713Z,4.07
2023-04-19T23:49:32.028Z,4.78
2023-04-19T23:51:58.374Z,4.93
2023-04-19T23:54:27.523Z,4.32
2023-04-19T23:56:54.297Z,4.30
2023-04-19T23:59:20.701Z,5.25
